Time;durP1;ratioP1;P1;durP2;ratioP2;P2;SDS_P1;SDS_P2;PMS_P1;PMS_P2;Temp;Humidity;BMP_temperature;BMP_pressure;BME280_temperature;BME280_humidity;BME280_pressure;Samples;Min_cycle;Max_cycle;Signal;HPM_P1;HPM_P2
2020/12/16 00:01:21;;;;;;;21.60;3.65;;;27.50;82.90;;;;;;4949784;29;20059;-92
2020/12/16 00:03:48;;;;;;;12.75;3.35;;;27.50;82.80;;;;;;4958269;29;20007;-91
2020/12/16 00:06:17;;;;;;;11.98;3.67;;;27.40;83.80;;;;;;4959340;29;20035;-90
2020/12/16 00:08:48;;;;;;;17.10;3.58;;;27.30;83.40;;;;;;4952765;29;20023;-92
2020/12/16 00:11:20;;;;;;;15.57;3.28;;;27.40;83.70;;;;;;4954284;28;20338;-88
2020/12/16 00:14:06;;;;;;;13.15;6.03;;;27.30;83.70;;;;;;4970075;29;20038;-93
2020/12/16 00:17:01;;;;;;;18.35;4.88;;;27.20;83.60;;;;;;4937494;29;20042;-94
2020/12/16 00:19:44;;;;;;;10.82;4.03;;;27.20;84.00;;;;;;4890309;29;20059;-93
2020/12/16 00:22:12;;;;;;;13.85;6.95;;;27.30;84.30;;;;;;4873978;29;20052;-91
2020/12/16 00:24:39;;;;;;;13.43;3.95;;;27.30;84.60;;;;;;4873962;29;20029;-89
2020/12/16 00:27:14;;;;;;;8.40;3.50;;;27.30;83.70;;;;;;4889480;29;20033;-90
2020/12/16 00:29:40;;;;;;;7.53;2.92;;;27.20;83.60;;;;;;4873624;29;20033;-90
2020/12/16 00:32:07;;;;;;;10.68;2.55;;;27.20;84.00;;;;;;4877907;29;20025;-89
2020/12/16 00:34:34;;;;;;;5.47;2.47;;;27.20;83.10;;;;;;4877261;29;20293;-90
2020/12/16 00:37:01;;;;;;;9.15;2.15;;;27.00;83.90;;;;;;4880571;29;20069;-90
2020/12/16 00:39:27;;;;;;;3.67;2.03;;;27.00;83.50;;;;;;4878117;29;20025;-90
2020/12/16 00:42:09;;;;;;;5.00;2.20;;;27.00;83.90;;;;;;4876883;29;20036;-90
2020/12/16 00:44:38;;;;;;;7.43;2.00;;;27.00;83.80;;;;;;4894407;29;20029;-90
2020/12/16 00:47:05;;;;;;;9.20;2.25;;;27.00;83.40;;;;;;4877894;29;20227;-89
2020/12/16 00:49:32;;;;;;;5.57;1.85;;;26.90;84.00;;;;;;4889675;29;20039;-90
2020/12/16 00:52:00;;;;;;;6.07;1.85;;;26.80;83.90;;;;;;4996447;28;20065;-90
2020/12/16 00:54:27;;;;;;;7.45;2.00;;;26.80;83.20;;;;;;5015426;28;20042;-91
2020/12/16 00:56:54;;;;;;;5.75;2.17;;;26.80;82.70;;;;;;4990824;28;20101;-91
2020/12/16 00:59:21;;;;;;;8.63;2.65;;;26.90;83.50;;;;;;5007244;28;20049;-91
2020/12/16 01:01:47;;;;;;;10.07;2.10;;;26.90;82.90;;;;;;5006450;28;20026;-91
2020/12/16 01:04:15;;;;;;;4.88;2.05;;;26.80;82.90;;;;;;5006135;28;20065;-92
2020/12/16 01:06:43;;;;;;;5.97;1.98;;;26.80;83.30;;;;;;5008791;28;20034;-91
2020/12/16 01:09:10;;;;;;;3.83;2.13;;;26.80;83.20;;;;;;5006428;28;20018;-90
2020/12/16 01:11:38;;;;;;;4.63;2.22;;;26.90;82.90;;;;;;5009350;28;20042;-92
2020/12/16 01:14:06;;;;;;;13.88;2.40;;;26.80;83.10;;;;;;4990464;28;20031;-92
2020/12/16 01:16:37;;;;;;;12.52;2.70;;;26.80;83.20;;;;;;5011254;28;20026;-92
2020/12/16 01:19:07;;;;;;;14.70;2.20;;;26.80;81.80;;;;;;5009409;28;20038;-93
2020/12/16 01:21:36;;;;;;;8.68;1.98;;;26.80;82.50;;;;;;5009749;28;20026;-88
2020/12/16 01:24:08;;;;;;;8.23;2.13;;;26.80;82.30;;;;;;5008546;28;20041;-92
2020/12/16 01:26:50;;;;;;;5.60;2.03;;;26.80;81.90;;;;;;5008632;28;20098;-91
2020/12/16 01:29:19;;;;;;;7.10;2.05;;;26.80;81.90;;;;;;4988358;28;20140;-88
2020/12/16 01:31:48;;;;;;;8.73;2.05;;;26.80;82.00;;;;;;5005243;28;20048;-92
2020/12/16 01:34:19;;;;;;;3.90;1.63;;;26.70;81.60;;;;;;5004610;28;20337;-92
2020/12/16 01:36:49;;;;;;;4.75;1.77;;;26.70;82.10;;;;;;5004968;28;20027;-92
2020/12/16 01:39:17;;;;;;;2.78;1.88;;;26.70;82.40;;;;;;5008700;28;20093;-92
2020/12/16 01:41:47;;;;;;;4.47;1.92;;;26.70;81.90;;;;;;5008685;28;20345;-91
2020/12/16 01:44:15;;;;;;;7.70;2.10;;;26.80;81.90;;;;;;5006774;28;20025;-93
2020/12/16 01:46:52;;;;;;;7.93;1.95;;;26.80;81.30;;;;;;5007319;28;20022;-90
2020/12/16 01:49:23;;;;;;;5.82;1.80;;;26.80;81.40;;;;;;5008539;28;20086;-92
2020/12/16 01:51:58;;;;;;;6.97;2.20;;;26.80;82.20;;;;;;5008102;28;20026;-92
2020/12/16 01:54:26;;;;;;;7.82;2.30;;;26.70;81.70;;;;;;5007402;28;20022;-91
2020/12/16 01:56:56;;;;;;;8.05;3.20;;;26.70;82.40;;;;;;5007003;28;20022;-92
2020/12/16 01:59:23;;;;;;;4.75;1.67;;;26.70;81.50;;;;;;5011696;28;20022;-92
2020/12/16 02:01:54;;;;;;;7.57;1.98;;;26.70;82.50;;;;;;5016094;28;20022;-91
2020/12/16 02:04:24;;;;;;;5.35;1.83;;;26.70;82.20;;;;;;5012901;28;20218;-91
2020/12/16 02:06:58;;;;;;;8.45;4.05;;;26.60;82.20;;;;;;5144579;23;20017;-91
2020/12/16 02:09:26;;;;;;;12.40;4.40;;;26.60;83.00;;;;;;5027592;28;20109;-92
2020/12/16 02:11:56;;;;;;;10.07;3.80;;;26.50;83.10;;;;;;5029722;28;20020;-91
2020/12/16 02:14:32;;;;;;;10.95;3.38;;;26.50;83.80;;;;;;5011330;28;20029;-92
2020/12/16 02:16:59;;;;;;;7.47;2.28;;;26.40;83.90;;;;;;4997431;28;20048;-92
2020/12/16 02:19:30;;;;;;;11.27;3.40;;;26.40;83.30;;;;;;5014002;28;20029;-91
2020/12/16 02:21:57;;;;;;;6.53;2.08;;;26.50;83.20;;;;;;5014529;28;20021;-90
2020/12/16 02:24:32;;;;;;;6.85;2.13;;;26.40;83.90;;;;;;5009419;28;20033;-90
2020/12/16 02:26:58;;;;;;;6.15;1.83;;;26.30;83.30;;;;;;5013258;28;20022;-92
2020/12/16 02:29:27;;;;;;;4.00;1.80;;;26.30;83.70;;;;;;5028945;28;20076;-91
2020/12/16 02:31:56;;;;;;;3.22;1.98;;;26.20;83.80;;;;;;5012527;28;20060;-91
2020/12/16 02:34:24;;;;;;;2.53;1.55;;;26.20;84.10;;;;;;5013047;28;20057;-90
2020/12/16 02:36:51;;;;;;;4.43;1.80;;;26.20;84.50;;;;;;5033853;28;20077;-91
2020/12/16 02:39:17;;;;;;;3.55;1.88;;;26.20;84.60;;;;;;5010997;28;20080;-92
2020/12/16 02:41:44;;;;;;;4.93;1.60;;;26.20;84.30;;;;;;5009722;28;20106;-91
2020/12/16 02:44:12;;;;;;;4.30;1.80;;;26.10;85.00;;;;;;5013808;28;20007;-90
2020/12/16 02:46:39;;;;;;;4.20;1.77;;;26.10;85.70;;;;;;4995187;28;20014;-92
2020/12/16 02:49:06;;;;;;;5.72;2.22;;;26.00;85.00;;;;;;4996087;28;20084;-91
2020/12/16 02:51:34;;;;;;;4.50;1.85;;;26.10;85.40;;;;;;5014875;28;20018;-89
2020/12/16 02:54:04;;;;;;;3.28;2.08;;;26.10;85.20;;;;;;5015081;28;20180;-91
2020/12/16 02:56:33;;;;;;;5.63;2.78;;;26.00;85.00;;;;;;5015484;28;20198;-89
2020/12/16 02:59:08;;;;;;;7.55;2.97;;;26.00;85.80;;;;;;5001694;28;20053;-87
2020/12/16 03:04:12;;;;;;;6.80;3.60;;;25.90;86.30;;;;;;5128151;22;19909;-88
2020/12/16 03:06:58;;;;;;;8.38;5.38;;;25.90;86.00;;;;;;5240145;22;20357;-89
2020/12/16 03:09:27;;;;;;;8.13;5.45;;;25.90;85.90;;;;;;5033640;28;20037;-89
2020/12/16 03:11:59;;;;;;;6.25;2.97;;;25.90;86.20;;;;;;5021066;28;20025;-90
2020/12/16 03:14:25;;;;;;;2.72;2.42;;;25.90;86.00;;;;;;5023092;28;20029;-90
2020/12/16 03:16:57;;;;;;;3.65;2.05;;;25.80;86.70;;;;;;5040719;28;20021;-90
2020/12/16 03:19:25;;;;;;;5.18;1.95;;;25.80;86.50;;;;;;5035204;28;20100;-90
2020/12/16 03:21:53;;;;;;;9.70;2.35;;;25.80;86.40;;;;;;5035736;28;20037;-90
2020/12/16 03:24:23;;;;;;;3.70;2.05;;;25.80;86.80;;;;;;5031074;28;20040;-88
2020/12/16 03:26:50;;;;;;;5.38;1.80;;;25.80;86.90;;;;;;5028757;28;20032;-89
2020/12/16 03:29:16;;;;;;;3.75;2.17;;;25.80;87.30;;;;;;5047330;28;20013;-91
2020/12/16 03:31:43;;;;;;;6.07;1.73;;;25.80;86.70;;;;;;5049434;28;20302;-91
2020/12/16 03:34:10;;;;;;;3.10;2.00;;;25.80;86.80;;;;;;5030677;28;20018;-91
2020/12/16 03:36:37;;;;;;;2.38;1.75;;;25.80;86.70;;;;;;5033143;28;20033;-91
2020/12/16 03:39:06;;;;;;;2.30;1.80;;;25.80;86.00;;;;;;5198409;22;20045;-90
2020/12/16 03:41:33;;;;;;;3.33;1.42;;;25.80;86.50;;;;;;5028552;28;20028;-90
2020/12/16 03:44:00;;;;;;;4.70;1.58;;;25.70;86.40;;;;;;5012709;28;20033;-91
2020/12/16 03:46:27;;;;;;;3.30;1.30;;;25.80;86.30;;;;;;4999511;28;20029;-90
2020/12/16 03:48:54;;;;;;;2.15;1.77;;;25.80;86.40;;;;;;5012604;28;20026;-89
2020/12/16 03:51:28;;;;;;;4.22;1.50;;;25.80;86.20;;;;;;5030674;28;20033;-91
2020/12/16 03:53:54;;;;;;;1.95;1.60;;;25.80;86.20;;;;;;5013235;28;20033;-90
2020/12/16 03:56:21;;;;;;;3.30;1.60;;;25.70;86.00;;;;;;5012069;28;20014;-92
2020/12/16 03:58:49;;;;;;;2.45;1.55;;;25.70;86.10;;;;;;5028351;28;20026;-90
2020/12/16 04:01:17;;;;;;;3.03;1.50;;;25.70;86.00;;;;;;5011366;28;20030;-92
2020/12/16 04:03:45;;;;;;;3.17;1.55;;;25.70;86.30;;;;;;5013876;28;20030;-91
2020/12/16 04:06:13;;;;;;;4.68;1.40;;;25.70;85.60;;;;;;5036560;28;20010;-88
2020/12/16 04:08:41;;;;;;;3.40;1.45;;;25.70;86.00;;;;;;5020028;28;20025;-90
2020/12/16 04:11:16;;;;;;;3.88;1.58;;;25.70;85.50;;;;;;5035725;28;20092;-89
2020/12/16 04:13:43;;;;;;;3.28;1.58;;;25.70;85.60;;;;;;5017584;28;20068;-91
2020/12/16 04:16:13;;;;;;;2.85;1.70;;;25.70;85.30;;;;;;5012565;28;20018;-91
2020/12/16 04:18:40;;;;;;;2.35;1.40;;;25.60;85.70;;;;;;5030946;28;20030;-92
2020/12/16 04:21:08;;;;;;;1.70;1.30;;;25.60;85.30;;;;;;5011543;28;20045;-93
2020/12/16 04:23:36;;;;;;;2.47;1.85;;;25.60;85.70;;;;;;5029360;28;20026;-91
2020/12/16 04:26:03;;;;;;;2.10;1.48;;;25.60;85.30;;;;;;5012532;28;20060;-90
2020/12/16 04:28:30;;;;;;;4.15;1.45;;;25.60;85.50;;;;;;5013092;28;20029;-90
2020/12/16 04:30:57;;;;;;;2.83;1.50;;;25.60;85.20;;;;;;5012853;28;20017;-91
2020/12/16 04:33:26;;;;;;;3.25;1.40;;;25.60;84.90;;;;;;5014011;28;20049;-92
2020/12/16 04:35:56;;;;;;;2.83;1.40;;;25.60;85.00;;;;;;5012185;28;20026;-91
2020/12/16 04:38:32;;;;;;;2.70;1.40;;;25.60;84.90;;;;;;5070821;22;20028;-89
2020/12/16 04:40:59;;;;;;;1.88;1.60;;;25.60;85.10;;;;;;4997499;28;20052;-90
2020/12/16 04:43:26;;;;;;;3.22;1.67;;;25.60;84.70;;;;;;4995582;28;20034;-92
2020/12/16 04:45:53;;;;;;;3.97;1.35;;;25.60;85.10;;;;;;4993770;28;20025;-91
2020/12/16 04:48:21;;;;;;;2.03;1.50;;;25.50;85.20;;;;;;5011004;28;20014;-90
2020/12/16 04:50:48;;;;;;;3.63;1.60;;;25.50;85.10;;;;;;4995230;28;20101;-92
2020/12/16 04:53:19;;;;;;;2.55;1.40;;;25.50;85.60;;;;;;4992437;28;20140;-89
2020/12/16 04:55:47;;;;;;;2.07;1.20;;;25.50;85.20;;;;;;5010112;28;20333;-91
2020/12/16 04:58:14;;;;;;;3.42;1.65;;;25.40;85.20;;;;;;4994382;28;20093;-91
2020/12/16 05:00:40;;;;;;;3.92;1.20;;;25.40;85.10;;;;;;4992591;28;20042;-91
2020/12/16 05:03:09;;;;;;;2.22;1.48;;;25.40;85.30;;;;;;4990685;28;20018;-91
2020/12/16 05:05:37;;;;;;;2.28;1.33;;;25.40;85.30;;;;;;4992609;28;20307;-90
2020/12/16 05:08:11;;;;;;;2.30;1.63;;;25.40;85.10;;;;;;4991688;28;20046;-89
2020/12/16 05:10:48;;;;;;;2.03;1.30;;;25.30;85.50;;;;;;5010386;28;20390;-89
2020/12/16 05:13:18;;;;;;;5.00;1.40;;;25.40;85.90;;;;;;4996827;28;20030;-91
2020/12/16 05:15:49;;;;;;;3.53;1.80;;;25.30;86.10;;;;;;5017283;28;20029;-91
2020/12/16 05:18:17;;;;;;;1.67;1.27;;;25.30;86.00;;;;;;4997924;28;20022;-91
2020/12/16 05:20:45;;;;;;;2.38;1.30;;;25.30;86.30;;;;;;4998514;28;20227;-92
2020/12/16 05:23:12;;;;;;;2.35;1.45;;;25.20;86.20;;;;;;4997270;28;20010;-91
2020/12/16 05:26:09;;;;;;;2.78;1.48;;;25.20;86.60;;;;;;5014291;28;20061;-90
2020/12/16 05:29:02;;;;;;;3.08;1.50;;;25.10;87.00;;;;;;5013328;28;20031;-90
2020/12/16 05:31:28;;;;;;;;;;;25.10;86.80;;;;;;4993636;28;20117;-90
2020/12/16 05:33:55;;;;;;;2.90;1.63;;;25.10;86.50;;;;;;4995441;28;19932;-90
2020/12/16 05:36:30;;;;;;;2.38;1.70;;;25.10;87.10;;;;;;4995689;28;20046;-89
2020/12/16 05:38:59;;;;;;;2.92;1.65;;;25.00;87.50;;;;;;4995798;28;20274;-89
2020/12/16 05:41:54;;;;;;;2.13;1.55;;;25.00;87.40;;;;;;4996618;28;20011;-92
2020/12/16 05:44:22;;;;;;;3.20;1.45;;;25.00;87.30;;;;;;4955249;29;20035;-91
2020/12/16 05:46:51;;;;;;;1.65;1.35;;;24.90;87.40;;;;;;4972135;29;20034;-92
2020/12/16 05:49:30;;;;;;;3.35;2.00;;;25.00;87.20;;;;;;4955734;29;20033;-89
2020/12/16 05:51:59;;;;;;;2.03;1.50;;;25.00;87.70;;;;;;4972378;29;20082;-90
2020/12/16 05:54:27;;;;;;;2.10;1.48;;;24.90;87.60;;;;;;4973025;29;20031;-90
2020/12/16 05:57:18;;;;;;;1.90;1.48;;;24.90;86.60;;;;;;4957205;29;20019;-91
2020/12/16 06:00:22;;;;;;;5.47;1.60;;;24.90;87.40;;;;;;4947674;29;20035;-89
2020/12/16 06:02:49;;;;;;;2.20;1.45;;;24.90;87.30;;;;;;4918269;29;20032;-91
2020/12/16 06:05:17;;;;;;;3.00;1.55;;;24.90;86.70;;;;;;4950285;29;20035;-91
2020/12/16 06:07:46;;;;;;;6.80;1.73;;;24.90;87.10;;;;;;4957071;29;20251;-91
2020/12/16 06:10:12;;;;;;;2.45;1.50;;;24.90;87.70;;;;;;4955798;29;20046;-89
2020/12/16 06:12:41;;;;;;;2.70;1.90;;;24.90;87.50;;;;;;4973993;28;20011;-90
2020/12/16 06:15:13;;;;;;;2.58;1.50;;;24.90;87.90;;;;;;4991435;28;20049;-90
2020/12/16 06:17:46;;;;;;;7.32;1.50;;;24.90;88.50;;;;;;5011558;28;20046;-88
2020/12/16 06:20:15;;;;;;;1.73;1.50;;;24.80;87.90;;;;;;4995379;28;20034;-89
2020/12/16 06:22:47;;;;;;;2.05;1.70;;;24.80;87.70;;;;;;4994484;28;20026;-91
2020/12/16 06:25:27;;;;;;;2.08;1.50;;;24.80;88.00;;;;;;5012887;28;20338;-90
2020/12/16 06:27:54;;;;;;;2.30;1.50;;;24.80;88.20;;;;;;4994944;28;20026;-89
2020/12/16 06:30:37;;;;;;;2.05;1.30;;;24.70;87.40;;;;;;4994012;28;20026;-89
2020/12/16 06:33:13;;;;;;;2.10;1.60;;;24.70;88.10;;;;;;4993797;28;20206;-91
2020/12/16 06:35:44;;;;;;;3.30;1.35;;;24.70;88.70;;;;;;5012954;28;20018;-90
2020/12/16 06:38:22;;;;;;;3.63;1.67;;;24.60;87.70;;;;;;4995226;28;20025;-92
2020/12/16 06:40:51;;;;;;;3.88;1.52;;;24.60;88.80;;;;;;4994441;28;20054;-91
2020/12/16 06:43:37;;;;;;;2.22;1.65;;;24.60;88.50;;;;;;4994191;28;20030;-90
2020/12/16 06:46:24;;;;;;;1.85;1.38;;;24.50;88.00;;;;;;4995126;28;20141;-91
2020/12/16 06:48:51;;;;;;;2.38;1.90;;;24.60;88.30;;;;;;5012516;28;20022;-94
2020/12/16 06:51:23;;;;;;;1.90;1.38;;;24.60;89.10;;;;;;5012357;28;20037;-91
2020/12/16 06:54:02;;;;;;;2.58;1.60;;;24.60;89.10;;;;;;4995864;28;20018;-92
2020/12/16 06:56:29;;;;;;;1.90;1.60;;;24.50;89.80;;;;;;4995480;28;20025;-91
2020/12/16 06:58:56;;;;;;;1.95;1.33;;;24.50;90.10;;;;;;4993225;28;20108;-93
2020/12/16 07:01:23;;;;;;;1.50;1.40;;;24.50;90.60;;;;;;4993791;28;20026;-92
2020/12/16 07:03:52;;;;;;;4.80;2.08;;;24.40;90.40;;;;;;4992427;28;20026;-91
2020/12/16 07:06:31;;;;;;;3.92;1.88;;;24.50;90.30;;;;;;4994250;28;20026;-89
2020/12/16 07:09:17;;;;;;;3.17;2.10;;;24.50;90.60;;;;;;4993567;28;20029;-90
2020/12/16 07:11:54;;;;;;;2.38;1.60;;;24.40;90.50;;;;;;4994498;28;20026;-94
2020/12/16 07:14:31;;;;;;;4.65;2.15;;;24.30;90.20;;;;;;4993488;28;20073;-94
2020/12/16 07:17:11;;;;;;;3.65;1.70;;;24.30;90.30;;;;;;5011678;28;20037;-93
2020/12/16 07:19:38;;;;;;;2.22;1.60;;;24.30;90.40;;;;;;4994052;28;20033;-93
2020/12/16 07:22:31;;;;;;;3.28;1.60;;;24.20;90.50;;;;;;4993829;28;20045;-91
2020/12/16 07:24:58;;;;;;;1.63;1.48;;;24.20;90.60;;;;;;4990863;28;20058;-90
2020/12/16 07:27:26;;;;;;;2.35;1.55;;;24.20;90.20;;;;;;4993313;28;20031;-93
2020/12/16 07:29:57;;;;;;;4.35;1.33;;;24.10;90.10;;;;;;4992311;28;20019;-93
2020/12/16 07:32:26;;;;;;;3.75;1.40;;;24.20;89.80;;;;;;4990602;28;20026;-93
2020/12/16 07:35:01;;;;;;;4.25;1.50;;;24.10;89.70;;;;;;4991127;28;20034;-92
2020/12/16 07:37:31;;;;;;;1.80;1.40;;;24.10;89.20;;;;;;4995430;28;20027;-94
2020/12/16 07:40:00;;;;;;;1.85;1.25;;;24.10;89.50;;;;;;4994461;28;20046;-94
2020/12/16 07:42:29;;;;;;;1.65;1.38;;;24.00;90.00;;;;;;4992436;28;20026;-91
2020/12/16 07:44:57;;;;;;;2.47;1.35;;;24.10;89.40;;;;;;4992085;28;20029;-93
2020/12/16 07:47:24;;;;;;;3.15;1.30;;;24.00;89.50;;;;;;4992542;28;20222;-90
2020/12/16 07:49:51;;;;;;;3.63;1.20;;;24.00;89.30;;;;;;4992141;28;20203;-93
2020/12/16 07:52:24;;;;;;;2.15;1.20;;;24.10;88.30;;;;;;4992588;28;20042;-93
2020/12/16 07:54:50;;;;;;;2.13;1.30;;;24.10;88.10;;;;;;4993338;28;20021;-93
2020/12/16 07:57:17;;;;;;;2.72;1.30;;;24.10;87.10;;;;;;4992364;28;20031;-91
2020/12/16 07:59:46;;;;;;;4.20;1.80;;;24.20;88.40;;;;;;4996960;28;20077;-92
2020/12/16 08:02:15;;;;;;;5.03;1.60;;;24.10;89.30;;;;;;4992876;28;20234;-90
2020/12/16 08:04:43;;;;;;;6.60;2.42;;;24.10;89.10;;;;;;4991780;28;20334;-91
2020/12/16 08:07:19;;;;;;;10.43;1.65;;;24.20;89.50;;;;;;5013803;28;20030;-90
2020/12/16 08:10:07;;;;;;;5.32;2.10;;;24.20;88.40;;;;;;5009573;28;20032;-91
2020/12/16 08:12:40;;;;;;;6.30;1.58;;;24.20;88.50;;;;;;4992793;28;20026;-92
2020/12/16 08:15:17;;;;;;;5.80;1.60;;;24.10;89.90;;;;;;4991471;28;20041;-91
2020/12/16 08:17:46;;;;;;;4.28;1.40;;;24.00;90.10;;;;;;4991912;28;20030;-93
2020/12/16 08:20:14;;;;;;;3.53;1.40;;;24.00;89.40;;;;;;4992130;28;20026;-90
2020/12/16 08:22:42;;;;;;;5.07;1.40;;;24.00;89.70;;;;;;5010365;28;20026;-91
2020/12/16 08:25:10;;;;;;;2.75;1.80;;;24.00;90.10;;;;;;5009019;28;20040;-91
2020/12/16 08:27:47;;;;;;;2.28;1.52;;;24.00;89.80;;;;;;4989697;28;20341;-90
2020/12/16 08:30:15;;;;;;;3.40;1.35;;;24.00;90.20;;;;;;4989435;28;20029;-90
2020/12/16 08:33:02;;;;;;;2.60;1.20;;;24.00;90.00;;;;;;4989261;28;20026;-91
2020/12/16 08:35:40;;;;;;;2.10;1.33;;;23.90;90.10;;;;;;4989268;28;20039;-89
2020/12/16 08:38:09;;;;;;;1.75;1.08;;;23.80;90.20;;;;;;5006979;28;20022;-92
2020/12/16 08:40:44;;;;;;;7.05;1.58;;;23.80;90.30;;;;;;5006780;28;20053;-93
2020/12/16 08:43:24;;;;;;;1.60;1.40;;;23.90;90.20;;;;;;4989442;28;20030;-90
2020/12/16 08:46:06;;;;;;;4.05;1.50;;;23.80;90.50;;;;;;4989676;28;20026;-89
2020/12/16 08:49:03;;;;;;;3.53;1.60;;;23.80;90.60;;;;;;5006501;28;20061;-89
2020/12/16 08:51:37;;;;;;;3.95;2.13;;;23.80;90.70;;;;;;4977584;28;20054;-90
2020/12/16 08:54:06;;;;;;;3.45;1.35;;;23.70;90.90;;;;;;4989498;28;20033;-90
2020/12/16 08:56:49;;;;;;;1.70;1.60;;;23.70;91.40;;;;;;5005973;28;20026;-93
2020/12/16 08:59:17;;;;;;;2.53;1.60;;;23.70;91.20;;;;;;5005702;28;20022;-91
2020/12/16 09:01:46;;;;;;;2.25;1.73;;;23.70;91.20;;;;;;4988544;28;20026;-92
2020/12/16 09:04:27;;;;;;;4.50;1.50;;;23.60;91.10;;;;;;4987967;28;20033;-91
2020/12/16 09:07:14;;;;;;;2.50;1.50;;;23.60;91.10;;;;;;5006159;28;20022;-90
2020/12/16 09:09:46;;;;;;;1.55;1.40;;;23.60;90.90;;;;;;4994006;28;20030;-90
2020/12/16 09:12:18;;;;;;;2.13;1.65;;;23.60;90.70;;;;;;4993622;28;20025;-89
2020/12/16 09:14:56;;;;;;;5.85;1.73;;;23.60;91.00;;;;;;4992770;28;20045;-89
2020/12/16 09:17:29;;;;;;;4.05;1.90;;;23.60;91.10;;;;;;4994065;28;20053;-91
2020/12/16 09:19:57;;;;;;;2.50;1.88;;;23.60;91.00;;;;;;5012032;28;20023;-89
2020/12/16 09:22:28;;;;;;;2.13;1.80;;;23.60;90.90;;;;;;4994361;28;20061;-92
2020/12/16 09:24:58;;;;;;;7.43;1.90;;;23.60;91.20;;;;;;4992793;28;20018;-90
2020/12/16 09:27:26;;;;;;;3.08;1.90;;;23.60;91.30;;;;;;4994043;28;20034;-91
2020/12/16 09:29:52;;;;;;;2.28;1.90;;;23.60;91.10;;;;;;4994403;28;20050;-90
2020/12/16 09:32:24;;;;;;;4.45;2.38;;;23.60;91.20;;;;;;4994735;28;20360;-89
2020/12/16 09:34:53;;;;;;;2.67;1.70;;;23.60;90.90;;;;;;4995403;28;20068;-92
2020/12/16 09:37:35;;;;;;;5.05;1.60;;;23.60;91.00;;;;;;4994435;28;20034;-91
2020/12/16 09:40:14;;;;;;;3.63;1.75;;;23.60;91.00;;;;;;5012190;28;20042;-92
2020/12/16 09:42:57;;;;;;;2.15;1.40;;;23.50;91.10;;;;;;4994285;28;20041;-90
2020/12/16 09:45:24;;;;;;;3.90;1.58;;;23.50;91.40;;;;;;4994495;28;20341;-89
2020/12/16 09:47:52;;;;;;;2.83;1.98;;;23.40;91.50;;;;;;4992604;28;20254;-90
2020/12/16 09:50:30;;;;;;;2.45;1.80;;;23.40;91.70;;;;;;4992582;28;20089;-91
2020/12/16 09:53:02;;;;;;;3.47;1.80;;;23.40;91.60;;;;;;5010092;28;20023;-91
2020/12/16 09:55:30;;;;;;;3.65;1.88;;;23.40;91.60;;;;;;4993356;28;20023;-92
2020/12/16 09:58:09;;;;;;;4.75;1.90;;;23.50;91.60;;;;;;5014210;28;20199;-91
2020/12/16 10:00:37;;;;;;;3.08;2.10;;;23.50;91.40;;;;;;4997756;28;20018;-90
2020/12/16 10:03:15;;;;;;;3.47;1.65;;;23.60;91.60;;;;;;4996526;28;20042;-89
2020/12/16 10:05:42;;;;;;;3.53;1.90;;;23.50;91.30;;;;;;4995823;28;20385;-93
2020/12/16 10:08:12;;;;;;;5.80;2.10;;;23.50;91.70;;;;;;4997050;28;20089;-90
2020/12/16 10:10:39;;;;;;;6.30;1.85;;;23.50;91.20;;;;;;4994751;28;20026;-91
2020/12/16 10:13:06;;;;;;;3.50;2.90;;;23.60;91.30;;;;;;4990710;28;20101;-87
2020/12/16 10:15:33;;;;;;;7.20;2.88;;;23.60;91.50;;;;;;5007893;28;20015;-87
2020/12/16 10:17:59;;;;;;;4.90;2.50;;;23.60;91.30;;;;;;5008153;28;20262;-87
2020/12/16 10:20:27;;;;;;;5.65;3.20;;;23.60;91.60;;;;;;5008296;28;20311;-92
2020/12/16 10:22:53;;;;;;;5.50;2.60;;;23.50;91.60;;;;;;4991941;28;20042;-91
2020/12/16 10:25:21;;;;;;;3.90;2.13;;;23.50;91.50;;;;;;4990540;28;20018;-91
2020/12/16 10:27:48;;;;;;;7.00;2.63;;;23.40;91.80;;;;;;4991136;28;20057;-90
2020/12/16 10:30:15;;;;;;;3.58;2.15;;;23.30;91.90;;;;;;5008345;28;20254;-93
2020/12/16 10:32:42;;;;;;;4.13;2.53;;;23.30;91.90;;;;;;4991344;28;20026;-90
2020/12/16 10:35:08;;;;;;;5.15;2.22;;;23.30;92.30;;;;;;4990356;28;20275;-91
2020/12/16 10:37:36;;;;;;;7.68;2.55;;;23.20;92.60;;;;;;4990272;28;20028;-91
2020/12/16 10:40:05;;;;;;;5.57;2.50;;;23.20;92.30;;;;;;4990333;28;20061;-92
2020/12/16 10:42:31;;;;;;;3.70;2.50;;;23.20;92.30;;;;;;4989953;28;20045;-91
2020/12/16 10:44:58;;;;;;;9.73;2.90;;;23.20;91.70;;;;;;4990541;28;20330;-92
2020/12/16 10:47:25;;;;;;;4.45;2.45;;;23.20;91.80;;;;;;4974796;28;20053;-91
2020/12/16 10:49:52;;;;;;;4.90;2.47;;;23.30;91.40;;;;;;4991198;28;20030;-93
2020/12/16 10:52:18;;;;;;;4.65;2.50;;;23.30;91.60;;;;;;4990320;28;20027;-90
2020/12/16 10:54:45;;;;;;;4.25;2.80;;;23.30;92.10;;;;;;5008509;28;20089;-91
2020/12/16 10:57:12;;;;;;;7.72;2.38;;;23.30;92.50;;;;;;4991955;28;20065;-90
2020/12/16 10:59:38;;;;;;;4.93;2.88;;;23.30;92.60;;;;;;5010457;28;20031;-90
2020/12/16 11:02:05;;;;;;;8.23;3.50;;;23.20;92.60;;;;;;4991652;28;20022;-91
2020/12/16 11:04:32;;;;;;;8.75;3.78;;;23.20;92.50;;;;;;4991392;28;20370;-91
2020/12/16 11:06:59;;;;;;;9.80;4.70;;;23.20;92.60;;;;;;4991229;28;20049;-91
2020/12/16 11:09:25;;;;;;;7.32;3.90;;;23.30;92.20;;;;;;4991678;28;20026;-91
2020/12/16 11:11:54;;;;;;;10.13;3.63;;;23.30;92.40;;;;;;4993065;28;20033;-91
2020/12/16 11:14:21;;;;;;;5.82;4.00;;;23.30;92.40;;;;;;4993608;28;20026;-92
2020/12/16 11:16:48;;;;;;;7.40;4.22;;;23.30;92.10;;;;;;4991206;28;20026;-91
2020/12/16 11:19:17;;;;;;;12.85;6.07;;;23.20;92.30;;;;;;4991853;28;20019;-91
2020/12/16 11:21:52;;;;;;;37.08;24.40;;;23.20;92.40;;;;;;4993575;28;20034;-91
2020/12/16 11:24:22;;;;;;;22.58;11.00;;;23.30;92.20;;;;;;4990538;28;20018;-92
2020/12/16 11:26:52;;;;;;;30.95;13.75;;;23.30;92.20;;;;;;4991258;28;20093;-92
2020/12/16 11:29:22;;;;;;;11.48;7.20;;;23.30;92.10;;;;;;4991947;28;20097;-92
2020/12/16 11:31:51;;;;;;;16.05;5.28;;;23.40;91.90;;;;;;4989870;28;20026;-93
2020/12/16 11:34:20;;;;;;;18.17;4.18;;;23.40;91.90;;;;;;4988736;28;20022;-91
2020/12/16 11:36:48;;;;;;;13.65;4.85;;;23.40;92.20;;;;;;5006158;28;20042;-92
2020/12/16 11:39:16;;;;;;;24.83;9.27;;;23.40;92.40;;;;;;5005898;28;20046;-92
2020/12/16 11:41:45;;;;;;;27.77;10.02;;;23.40;92.30;;;;;;4989823;28;20030;-93
2020/12/16 11:44:14;;;;;;;27.90;10.93;;;23.50;92.10;;;;;;4990259;28;20065;-92
2020/12/16 11:46:44;;;;;;;25.95;8.98;;;23.50;92.00;;;;;;4990653;28;20030;-93
2020/12/16 11:49:11;;;;;;;22.10;9.23;;;23.50;91.60;;;;;;4991469;28;20026;-94
2020/12/16 11:51:39;;;;;;;16.95;7.78;;;23.50;91.50;;;;;;4991530;28;20061;-94
2020/12/16 11:54:06;;;;;;;17.50;5.82;;;23.50;91.20;;;;;;4989174;28;20014;-94
2020/12/16 11:56:34;;;;;;;16.17;6.47;;;23.60;91.30;;;;;;4989089;28;20199;-95
2020/12/16 11:59:04;;;;;;;15.73;5.57;;;23.60;91.00;;;;;;4989191;28;20025;-93
2020/12/16 12:01:32;;;;;;;19.58;6.53;;;23.60;90.90;;;;;;4988838;28;20054;-93
2020/12/16 12:04:00;;;;;;;14.45;5.53;;;23.70;90.90;;;;;;4989035;28;20018;-92
2020/12/16 12:06:28;;;;;;;13.20;6.05;;;23.70;90.50;;;;;;4989999;28;20045;-94
2020/12/16 12:08:55;;;;;;;20.23;6.20;;;23.80;90.50;;;;;;4990521;28;20045;-93
2020/12/16 12:11:23;;;;;;;12.15;6.70;;;23.80;90.50;;;;;;4993447;28;20130;-91
2020/12/16 12:13:54;;;;;;;9.93;3.80;;;24.00;90.30;;;;;;4979098;28;20061;-87
2020/12/16 12:16:20;;;;;;;11.15;3.22;;;24.00;89.90;;;;;;4979731;28;20105;-92
2020/12/16 12:18:53;;;;;;;12.45;2.83;;;24.10;89.50;;;;;;4994838;28;20015;-90
2020/12/16 12:21:20;;;;;;;6.00;3.15;;;24.30;89.50;;;;;;4996619;28;20015;-90
2020/12/16 12:23:56;;;;;;;6.95;2.78;;;24.50;88.60;;;;;;5012066;28;20077;-91
2020/12/16 12:26:37;;;;;;;13.80;3.05;;;24.60;87.40;;;;;;5012324;28;20251;-88
2020/12/16 12:29:06;;;;;;;9.10;2.13;;;25.00;87.30;;;;;;5004164;28;20127;-90
2020/12/16 12:31:32;;;;;;;3.42;1.88;;;25.40;86.10;;;;;;4987653;28;20042;-91
2020/12/16 12:33:59;;;;;;;4.63;2.40;;;25.80;85.00;;;;;;4988306;28;20022;-91
2020/12/16 12:36:26;;;;;;;3.58;1.88;;;26.10;84.50;;;;;;4989132;28;20023;-88
2020/12/16 12:38:54;;;;;;;8.57;2.25;;;26.50;82.30;;;;;;4992852;28;20018;-90
2020/12/16 12:41:31;;;;;;;7.78;1.48;;;26.80;81.90;;;;;;4997522;28;20042;-90
2020/12/16 12:43:57;;;;;;;6.97;1.70;;;27.10;79.10;;;;;;5008822;28;20036;-89
2020/12/16 12:46:25;;;;;;;2.10;1.38;;;27.40;79.70;;;;;;4990233;28;20041;-91
2020/12/16 12:48:53;;;;;;;4.53;1.67;;;27.40;78.80;;;;;;5008264;28;20082;-93
2020/12/16 12:51:20;;;;;;;4.28;1.60;;;27.50;78.30;;;;;;4990957;28;20077;-92
2020/12/16 12:53:47;;;;;;;10.40;2.15;;;27.70;78.00;;;;;;4991296;28;20041;-89
2020/12/16 12:56:17;;;;;;;2.80;1.40;;;27.70;77.60;;;;;;4991399;28;20026;-89
2020/12/16 12:58:45;;;;;;;2.47;1.70;;;27.70;78.20;;;;;;4994106;28;20037;-88
2020/12/16 13:01:11;;;;;;;5.35;1.80;;;27.90;78.00;;;;;;4987011;28;20171;-90
2020/12/16 13:03:39;;;;;;;2.67;1.10;;;28.00;77.60;;;;;;4986802;28;20029;-89
2020/12/16 13:06:08;;;;;;;4.35;1.48;;;28.00;78.10;;;;;;4987006;28;20030;-88